Midland, MI

11:48 AM EST on March 03, 2015 (GMT -0500)
Barstow | Change Station
CLOSE
Current Station
Airport
Location: Midland,
Elevation: 636 ft
Nearby Weather Stations

Elev 636 ft 43.66 °N, 84.26 °W | Updated 15 minutes ago

Snow
Snow
24 °F
Feels Like 14 °F
N
9
Wind Variable Wind from SSE

Today
High -- | Low -- °F
--% Chance of Precip.
Yesterday
High -- | Low -- °F
Precip. -- in
7:10 AM 6:28 PM
Waxing Gibbous, 96% visible
Pressure 29.85 in
Visibility 0.8 miles
Clouds Overcast 1100 ft
Windchill 14 °F
Dew Point 20 °F
Humidity 87%
Rainfall 0.00 in
Snow Depth Not available.
UV 1 out of 12
Pollen .40 out of 12
Air Quality Not available.
Flu Activity Not available.
METAR KIKW 031633Z AUTO 15008KT 3/4SM -SN OVC011 M04/M06 A2985 RMK AO2 T10451064

More Conditions Fewer Conditions

Pressure 29.85 in
Visibility 0.8 miles
Clouds Overcast 1100 ft
Windchill 14 °F
Dew Point 20 °F
Humidity 87%
Rainfall 0.00 in
Snow Depth Not available.
UV 1 out of 12
Pollen .40 out of 12
Air Quality Not available.
Flu Activity Not available.
METAR KIKW 031633Z AUTO 15008KT 3/4SM -SN OVC011 M04/M06 A2985 RMK AO2 T10451064

More Conditions Fewer Conditions

10-Day Weather Forecast

Almanac

Astronomy

Mar. 03, 2015 Rise Set
Actual Time
Civil Twilight
Nautical Twilight
Astronomical Twilight
Moon
Length of Visible Light
Length of Day
Tomorrow will be .
, % of the Moon is Illuminated

Today's Extremes

State Highs State Lows

Community

WunderPhotos

Upload Photos

1,802,170 photos uploaded!

WunderBlogs® & News

Nearby

Air Quality

  Air Quality AQ Index Pollutant
Not available.

Snow Depth

Station Depth Elevation

Earthquake Activity

City Distance Mag. Time & Date
Minimum magnitude displayed is 2.5.

Coastal Water Temperatures

Place Temperature

Nearby Weather Stations

Winter Weather Advisory
Statement as of 6:52 AM EST on March 03, 2015

... Winter Weather Advisory remains in effect until 7 PM EST this
evening...

Hazardous weather...

* precipitation will begin as snow between 8 and 10 am. 2 to 4
   inches of snow and sleet is expected.

* Snow may mix with sleet after 1 PM.

* Heaviest precipitation is expected between 10 am and 4 PM.

Impacts...

* roads will become snow-covered and hazardous.

* Reduced visibility in moderate to briefly heavy snow.

Precautionary/preparedness actions...

* a Winter Weather Advisory means that periods of snow and
   sleet will cause travel difficulties. Be prepared for
   slippery roads and limited visibilities... and use caution
   while driving.

* Prepare... plan... and stay informed. Visit
   http://go.USA.Gov/rr8



Dg


Special Statement
Statement as of 9:50 AM EST on March 03, 2015

... Winter Weather Advisory in effect until 7 PM this evening...

Snow... heavy at times... will continue late this morning... possibly
mixed with sleet. Additional accumulations of 1 to 2 inches can
be expected through noon. Raods will be snow covered and
slick... as temperatures hold in the 20s into the early afternoon
hours.



Sf